sensor_id;sensor_type;location;lat;lon;timestamp;temperature;humidity
1205;DHT22;592;48.764;9.174;2023-02-03T07:22:36;5.40;99.90
1205;DHT22;592;48.764;9.174;2023-02-03T09:23:24;6.00;99.90
1205;DHT22;592;48.764;9.174;2023-02-03T09:25:51;6.10;99.90
1205;DHT22;592;48.764;9.174;2023-02-03T09:33:29;6.30;99.90
1205;DHT22;592;48.764;9.174;2023-02-03T09:35:56;6.40;99.90
1205;DHT22;592;48.764;9.174;2023-02-03T09:38:25;6.30;99.90
1205;DHT22;592;48.764;9.174;2023-02-03T10:14:42;6.80;99.90
1205;DHT22;592;48.764;9.174;2023-02-03T10:17:22;6.60;99.90
1205;DHT22;592;48.764;9.174;2023-02-03T10:19:56;6.80;99.90
1205;DHT22;592;48.764;9.174;2023-02-03T10:22:27;6.70;99.90
1205;DHT22;592;48.764;9.174;2023-02-03T10:27:31;6.90;99.90
1205;DHT22;592;48.764;9.174;2023-02-03T10:50:47;7.20;99.90
1205;DHT22;592;48.764;9.174;2023-02-03T10:53:25;7.10;99.90
1205;DHT22;592;48.764;9.174;2023-02-03T11:24:20;7.60;99.90
1205;DHT22;592;48.764;9.174;2023-02-03T11:26:50;7.50;99.90
1205;DHT22;592;48.764;9.174;2023-02-03T11:29:23;7.60;99.90
1205;DHT22;592;48.764;9.174;2023-02-03T11:31:52;7.50;99.90
1205;DHT22;592;48.764;9.174;2023-02-03T11:34:22;7.60;99.90
1205;DHT22;592;48.764;9.174;2023-02-03T11:36:51;7.70;99.90
1205;DHT22;592;48.764;9.174;2023-02-03T11:39:24;7.60;99.90
1205;DHT22;592;48.764;9.174;2023-02-03T11:42:00;7.70;99.90
1205;DHT22;592;48.764;9.174;2023-02-03T11:44:28;7.70;99.90
1205;DHT22;592;48.764;9.174;2023-02-03T11:49:59;7.80;99.90
1205;DHT22;592;48.764;9.174;2023-02-03T11:55:35;7.70;99.90
1205;DHT22;592;48.764;9.174;2023-02-03T11:58:21;7.80;99.90
1205;DHT22;592;48.764;9.174;2023-02-03T12:04:08;7.80;99.90
1205;DHT22;592;48.764;9.174;2023-02-03T12:06:56;7.70;99.90
1205;DHT22;592;48.764;9.174;2023-02-03T12:09:31;7.80;99.90
1205;DHT22;592;48.764;9.174;2023-02-03T12:12:17;7.70;99.90
1205;DHT22;592;48.764;9.174;2023-02-03T12:14:56;7.70;99.90
1205;DHT22;592;48.764;9.174;2023-02-03T12:17:53;7.80;99.90
1205;DHT22;592;48.764;9.174;2023-02-03T12:20:40;7.90;99.90
1205;DHT22;592;48.764;9.174;2023-02-03T12:23:17;7.90;99.90
1205;DHT22;592;48.764;9.174;2023-02-03T12:25:57;7.80;99.90
1205;DHT22;592;48.764;9.174;2023-02-03T12:28:38;7.80;99.90
1205;DHT22;592;48.764;9.174;2023-02-03T12:31:12;7.80;99.90
1205;DHT22;592;48.764;9.174;2023-02-03T12:33:42;7.80;99.90
1205;DHT22;592;48.764;9.174;2023-02-03T12:36:14;7.70;99.90
1205;DHT22;592;48.764;9.174;2023-02-03T12:50:05;7.60;99.90
1205;DHT22;592;48.764;9.174;2023-02-03T12:52:38;7.50;99.90
1205;DHT22;592;48.764;9.174;2023-02-03T12:55:19;7.60;99.90
1205;DHT22;592;48.764;9.174;2023-02-03T12:57:53;7.60;99.90
1205;DHT22;592;48.764;9.174;2023-02-03T13:00:43;7.60;99.90
1205;DHT22;592;48.764;9.174;2023-02-03T13:16:20;7.80;99.90
1205;DHT22;592;48.764;9.174;2023-02-03T13:18:52;7.80;99.90
1205;DHT22;592;48.764;9.174;2023-02-03T13:21:28;7.80;99.90
1205;DHT22;592;48.764;9.174;2023-02-03T13:23:59;7.80;99.90
1205;DHT22;592;48.764;9.174;2023-02-03T13:49:53;7.70;99.90
1205;DHT22;592;48.764;9.174;2023-02-03T13:52:31;7.80;99.90
1205;DHT22;592;48.764;9.174;2023-02-03T13:55:00;7.70;99.90
1205;DHT22;592;48.764;9.174;2023-02-03T13:57:31;7.70;99.90
1205;DHT22;592;48.764;9.174;2023-02-03T14:00:00;7.70;99.90
1205;DHT22;592;48.764;9.174;2023-02-03T14:02:51;7.80;99.90
1205;DHT22;592;48.764;9.174;2023-02-03T14:05:41;7.70;99.90
1205;DHT22;592;48.764;9.174;2023-02-03T14:11:37;7.90;99.90
1205;DHT22;592;48.764;9.174;2023-02-03T14:17:16;7.70;99.90
1205;DHT22;592;48.764;9.174;2023-02-03T14:23:12;7.70;99.90
1205;DHT22;592;48.764;9.174;2023-02-03T14:25:41;7.70;99.90
1205;DHT22;592;48.764;9.174;2023-02-03T14:28:11;7.70;99.90
1205;DHT22;592;48.764;9.174;2023-02-03T14:31:06;7.70;99.90
1205;DHT22;592;48.764;9.174;2023-02-03T14:33:48;7.70;99.90
1205;DHT22;592;48.764;9.174;2023-02-03T14:36:28;7.60;99.90
1205;DHT22;592;48.764;9.174;2023-02-03T14:38:59;7.60;99.90
1205;DHT22;592;48.764;9.174;2023-02-03T14:41:32;7.70;99.90
1205;DHT22;592;48.764;9.174;2023-02-03T14:44:08;7.70;99.90
1205;DHT22;592;48.764;9.174;2023-02-03T14:46:49;7.70;99.90
1205;DHT22;592;48.764;9.174;2023-02-03T14:49:36;7.70;99.90
1205;DHT22;592;48.764;9.174;2023-02-03T14:52:16;7.70;99.90
1205;DHT22;592;48.764;9.174;2023-02-03T14:54:58;7.60;99.90
1205;DHT22;592;48.764;9.174;2023-02-03T14:57:35;7.60;99.90
1205;DHT22;592;48.764;9.174;2023-02-03T15:00:07;7.60;99.90
1205;DHT22;592;48.764;9.174;2023-02-03T15:03:14;7.60;99.90
1205;DHT22;592;48.764;9.174;2023-02-03T15:05:45;7.60;99.90
1205;DHT22;592;48.764;9.174;2023-02-03T15:08:42;7.50;99.90
1205;DHT22;592;48.764;9.174;2023-02-03T15:11:27;7.50;99.90
1205;DHT22;592;48.764;9.174;2023-02-03T15:13:56;7.50;99.90
1205;DHT22;592;48.764;9.174;2023-02-03T15:16:41;7.50;99.90
1205;DHT22;592;48.764;9.174;2023-02-03T15:19:15;7.50;99.90
1205;DHT22;592;48.764;9.174;2023-02-03T15:21:42;7.50;99.90
1205;DHT22;592;48.764;9.174;2023-02-03T15:24:13;7.50;99.90
1205;DHT22;592;48.764;9.174;2023-02-03T15:26:45;7.40;99.90
1205;DHT22;592;48.764;9.174;2023-02-03T15:29:19;7.40;99.90
1205;DHT22;592;48.764;9.174;2023-02-03T15:31:49;7.30;99.90
1205;DHT22;592;48.764;9.174;2023-02-03T15:34:22;7.30;99.90
1205;DHT22;592;48.764;9.174;2023-02-03T15:36:53;7.20;99.90
1205;DHT22;592;48.764;9.174;2023-02-03T15:39:35;7.10;99.90
1205;DHT22;592;48.764;9.174;2023-02-03T15:42:05;7.10;99.90
1205;DHT22;592;48.764;9.174;2023-02-03T15:44:37;7.10;99.90
1205;DHT22;592;48.764;9.174;2023-02-03T15:47:14;7.10;99.90
1205;DHT22;592;48.764;9.174;2023-02-03T15:49:43;7.10;99.90
1205;DHT22;592;48.764;9.174;2023-02-03T15:52:14;7.10;99.90
1205;DHT22;592;48.764;9.174;2023-02-03T15:54:46;7.10;99.90
1205;DHT22;592;48.764;9.174;2023-02-03T15:57:21;7.10;99.90
1205;DHT22;592;48.764;9.174;2023-02-03T15:59:52;7.10;99.90
1205;DHT22;592;48.764;9.174;2023-02-03T16:02:21;7.10;99.90
1205;DHT22;592;48.764;9.174;2023-02-03T16:04:52;7.20;99.90
1205;DHT22;592;48.764;9.174;2023-02-03T16:07:21;7.10;99.90
1205;DHT22;592;48.764;9.174;2023-02-03T16:09:53;7.10;99.90
1205;DHT22;592;48.764;9.174;2023-02-03T16:12:22;7.10;99.90
1205;DHT22;592;48.764;9.174;2023-02-03T16:14:50;7.10;99.90
1205;DHT22;592;48.764;9.174;2023-02-03T16:17:23;7.10;99.90
1205;DHT22;592;48.764;9.174;2023-02-03T16:19:51;7.20;99.90
1205;DHT22;592;48.764;9.174;2023-02-03T16:22:28;7.10;99.90
1205;DHT22;592;48.764;9.174;2023-02-03T16:25:11;7.10;99.90
1205;DHT22;592;48.764;9.174;2023-02-03T16:27:38;7.10;99.90
1205;DHT22;592;48.764;9.174;2023-02-03T16:30:22;7.00;99.90
1205;DHT22;592;48.764;9.174;2023-02-03T16:33:15;7.10;99.90
1205;DHT22;592;48.764;9.174;2023-02-03T16:36:03;7.00;99.90
1205;DHT22;592;48.764;9.174;2023-02-03T16:38:52;6.90;99.90
1205;DHT22;592;48.764;9.174;2023-02-03T16:41:38;7.00;99.90
1205;DHT22;592;48.764;9.174;2023-02-03T16:44:22;7.00;99.90
1205;DHT22;592;48.764;9.174;2023-02-03T16:47:20;6.90;99.90
1205;DHT22;592;48.764;9.174;2023-02-03T16:50:10;6.90;99.90
1205;DHT22;592;48.764;9.174;2023-02-03T16:52:55;6.90;99.90
1205;DHT22;592;48.764;9.174;2023-02-03T16:55:22;6.90;99.90
1205;DHT22;592;48.764;9.174;2023-02-03T16:57:50;6.90;99.90
1205;DHT22;592;48.764;9.174;2023-02-03T17:00:17;6.90;99.90
1205;DHT22;592;48.764;9.174;2023-02-03T17:02:46;6.90;99.90
1205;DHT22;592;48.764;9.174;2023-02-03T17:05:13;6.90;99.90
1205;DHT22;592;48.764;9.174;2023-02-03T17:07:40;6.90;99.90
1205;DHT22;592;48.764;9.174;2023-02-03T17:10:07;6.90;99.90
1205;DHT22;592;48.764;9.174;2023-02-03T17:12:34;6.90;99.90
1205;DHT22;592;48.764;9.174;2023-02-03T17:15:03;6.90;99.90
1205;DHT22;592;48.764;9.174;2023-02-03T17:17:30;7.00;99.90
1205;DHT22;592;48.764;9.174;2023-02-03T17:19:57;7.00;99.90
1205;DHT22;592;48.764;9.174;2023-02-03T17:22:25;7.00;99.90
1205;DHT22;592;48.764;9.174;2023-02-03T17:24:52;7.00;99.90
1205;DHT22;592;48.764;9.174;2023-02-03T17:27:19;7.00;99.90
1205;DHT22;592;48.764;9.174;2023-02-03T17:29:46;7.00;99.90
1205;DHT22;592;48.764;9.174;2023-02-03T17:32:14;7.10;99.90
1205;DHT22;592;48.764;9.174;2023-02-03T17:34:41;7.10;99.90
1205;DHT22;592;48.764;9.174;2023-02-03T17:37:08;7.10;99.90
1205;DHT22;592;48.764;9.174;2023-02-03T17:39:35;7.10;99.90
1205;DHT22;592;48.764;9.174;2023-02-03T17:42:02;7.10;99.90
1205;DHT22;592;48.764;9.174;2023-02-03T17:44:29;7.10;99.90
1205;DHT22;592;48.764;9.174;2023-02-03T17:46:56;7.10;99.90
1205;DHT22;592;48.764;9.174;2023-02-03T17:49:24;7.20;99.90
1205;DHT22;592;48.764;9.174;2023-02-03T17:51:50;7.20;99.90
1205;DHT22;592;48.764;9.174;2023-02-03T17:54:17;7.30;99.90
1205;DHT22;592;48.764;9.174;2023-02-03T17:56:44;7.20;99.90
1205;DHT22;592;48.764;9.174;2023-02-03T17:59:12;7.20;99.90
1205;DHT22;592;48.764;9.174;2023-02-03T18:01:39;7.20;99.90
1205;DHT22;592;48.764;9.174;2023-02-03T18:04:07;7.20;99.90
1205;DHT22;592;48.764;9.174;2023-02-03T18:06:36;7.30;99.90
1205;DHT22;592;48.764;9.174;2023-02-03T18:09:06;7.30;99.90
1205;DHT22;592;48.764;9.174;2023-02-03T18:11:34;7.30;99.90
1205;DHT22;592;48.764;9.174;2023-02-03T18:14:01;7.30;99.90
1205;DHT22;592;48.764;9.174;2023-02-03T18:16:31;7.30;99.90
1205;DHT22;592;48.764;9.174;2023-02-03T18:19:00;7.30;99.90
1205;DHT22;592;48.764;9.174;2023-02-03T18:21:27;7.30;99.90
1205;DHT22;592;48.764;9.174;2023-02-03T18:23:58;7.30;99.90
1205;DHT22;592;48.764;9.174;2023-02-03T18:29:03;7.80;99.90
1205;DHT22;592;48.764;9.174;2023-02-03T18:31:31;8.50;99.90
1205;DHT22;592;48.764;9.174;2023-02-03T18:36:43;8.50;99.90
1205;DHT22;592;48.764;9.174;2023-02-03T18:39:12;8.40;99.90
1205;DHT22;592;48.764;9.174;2023-02-03T18:41:39;8.20;99.90
1205;DHT22;592;48.764;9.174;2023-02-03T18:44:08;7.90;99.90
1205;DHT22;592;48.764;9.174;2023-02-03T18:46:35;7.70;99.90
1205;DHT22;592;48.764;9.174;2023-02-03T18:49:02;7.70;99.90
1205;DHT22;592;48.764;9.174;2023-02-03T18:51:30;7.70;99.90
1205;DHT22;592;48.764;9.174;2023-02-03T18:53:58;7.60;99.90
1205;DHT22;592;48.764;9.174;2023-02-03T18:56:27;7.60;99.90
1205;DHT22;592;48.764;9.174;2023-02-03T18:59:00;7.50;99.90
1205;DHT22;592;48.764;9.174;2023-02-03T19:01:28;7.40;99.90
1205;DHT22;592;48.764;9.174;2023-02-03T19:03:57;7.40;99.90
1205;DHT22;592;48.764;9.174;2023-02-03T19:06:24;7.40;99.90
1205;DHT22;592;48.764;9.174;2023-02-03T19:08:51;7.40;99.90
1205;DHT22;592;48.764;9.174;2023-02-03T19:11:18;7.40;99.90
1205;DHT22;592;48.764;9.174;2023-02-03T19:13:47;7.40;99.90
1205;DHT22;592;48.764;9.174;2023-02-03T19:16:15;7.40;99.90
1205;DHT22;592;48.764;9.174;2023-02-03T19:18:42;7.30;99.90
1205;DHT22;592;48.764;9.174;2023-02-03T19:21:08;7.40;99.90
1205;DHT22;592;48.764;9.174;2023-02-03T19:23:36;7.40;99.90
1205;DHT22;592;48.764;9.174;2023-02-03T19:26:03;7.30;99.90
1205;DHT22;592;48.764;9.174;2023-02-03T19:28:29;7.30;99.90
1205;DHT22;592;48.764;9.174;2023-02-03T19:31:02;7.20;99.90
1205;DHT22;592;48.764;9.174;2023-02-03T19:33:29;7.20;99.90
1205;DHT22;592;48.764;9.174;2023-02-03T19:35:56;7.20;99.90
1205;DHT22;592;48.764;9.174;2023-02-03T19:38:23;7.20;99.90
1205;DHT22;592;48.764;9.174;2023-02-03T19:40:49;7.20;99.90
1205;DHT22;592;48.764;9.174;2023-02-03T19:43:16;7.20;99.90
1205;DHT22;592;48.764;9.174;2023-02-03T19:45:43;7.30;99.90
1205;DHT22;592;48.764;9.174;2023-02-03T19:48:11;7.20;99.90
1205;DHT22;592;48.764;9.174;2023-02-03T19:50:37;7.20;99.90
1205;DHT22;592;48.764;9.174;2023-02-03T19:53:05;7.30;99.90
1205;DHT22;592;48.764;9.174;2023-02-03T19:55:33;7.30;99.90
1205;DHT22;592;48.764;9.174;2023-02-03T19:58:02;7.30;99.90
1205;DHT22;592;48.764;9.174;2023-02-03T20:00:28;7.30;99.90
1205;DHT22;592;48.764;9.174;2023-02-03T20:02:55;7.30;99.90
1205;DHT22;592;48.764;9.174;2023-02-03T20:05:27;7.30;99.90
1205;DHT22;592;48.764;9.174;2023-02-03T20:07:54;7.30;99.90
1205;DHT22;592;48.764;9.174;2023-02-03T20:10:21;7.30;99.90
1205;DHT22;592;48.764;9.174;2023-02-03T20:12:50;7.30;99.90
1205;DHT22;592;48.764;9.174;2023-02-03T20:15:17;7.30;99.90
1205;DHT22;592;48.764;9.174;2023-02-03T20:17:44;7.30;99.90
1205;DHT22;592;48.764;9.174;2023-02-03T20:20:11;7.30;99.90
1205;DHT22;592;48.764;9.174;2023-02-03T20:22:39;7.30;99.90
1205;DHT22;592;48.764;9.174;2023-02-03T20:25:06;7.30;99.90
1205;DHT22;592;48.764;9.174;2023-02-03T20:27:33;7.40;99.90
1205;DHT22;592;48.764;9.174;2023-02-03T20:29:59;7.30;99.90
1205;DHT22;592;48.764;9.174;2023-02-03T20:32:27;7.30;99.90
1205;DHT22;592;48.764;9.174;2023-02-03T20:34:54;7.30;99.90
1205;DHT22;592;48.764;9.174;2023-02-03T20:37:20;7.30;99.90
1205;DHT22;592;48.764;9.174;2023-02-03T20:39:48;7.40;99.90
1205;DHT22;592;48.764;9.174;2023-02-03T20:42:16;7.40;99.90
1205;DHT22;592;48.764;9.174;2023-02-03T20:44:43;7.30;99.90
1205;DHT22;592;48.764;9.174;2023-02-03T20:47:11;7.30;99.90
1205;DHT22;592;48.764;9.174;2023-02-03T20:49:39;7.40;99.90
1205;DHT22;592;48.764;9.174;2023-02-03T20:52:11;7.40;99.90
1205;DHT22;592;48.764;9.174;2023-02-03T20:54:38;7.40;99.90
1205;DHT22;592;48.764;9.174;2023-02-03T20:57:12;7.40;99.90
1205;DHT22;592;48.764;9.174;2023-02-03T20:59:39;7.40;99.90
1205;DHT22;592;48.764;9.174;2023-02-03T21:02:17;7.40;99.90
1205;DHT22;592;48.764;9.174;2023-02-03T21:04:46;7.40;99.90
1205;DHT22;592;48.764;9.174;2023-02-03T21:07:25;7.40;99.90
1205;DHT22;592;48.764;9.174;2023-02-03T21:09:54;7.40;99.90
1205;DHT22;592;48.764;9.174;2023-02-03T21:12:23;7.40;99.90
1205;DHT22;592;48.764;9.174;2023-02-03T21:14:49;7.50;99.90
1205;DHT22;592;48.764;9.174;2023-02-03T21:17:20;7.50;99.90
1205;DHT22;592;48.764;9.174;2023-02-03T21:19:47;7.50;99.90
1205;DHT22;592;48.764;9.174;2023-02-03T21:22:16;7.50;99.90
1205;DHT22;592;48.764;9.174;2023-02-03T21:24:48;7.50;99.90
1205;DHT22;592;48.764;9.174;2023-02-03T21:27:26;7.50;99.90
1205;DHT22;592;48.764;9.174;2023-02-03T21:29:54;7.50;99.90
1205;DHT22;592;48.764;9.174;2023-02-03T21:32:23;7.50;99.90
1205;DHT22;592;48.764;9.174;2023-02-03T21:34:50;7.50;99.90
1205;DHT22;592;48.764;9.174;2023-02-03T21:37:38;7.50;99.90
1205;DHT22;592;48.764;9.174;2023-02-03T21:40:20;7.60;99.90
1205;DHT22;592;48.764;9.174;2023-02-03T21:42:48;7.60;99.90
1205;DHT22;592;48.764;9.174;2023-02-03T21:45:33;7.60;99.90
1205;DHT22;592;48.764;9.174;2023-02-03T21:48:21;7.60;99.90
1205;DHT22;592;48.764;9.174;2023-02-03T21:50:48;7.60;99.90
1205;DHT22;592;48.764;9.174;2023-02-03T21:53:23;7.60;99.90
1205;DHT22;592;48.764;9.174;2023-02-03T21:55:50;7.70;99.90
1205;DHT22;592;48.764;9.174;2023-02-03T21:58:21;7.60;99.90
1205;DHT22;592;48.764;9.174;2023-02-03T22:00:49;7.70;99.90
1205;DHT22;592;48.764;9.174;2023-02-03T22:03:17;7.70;99.90
1205;DHT22;592;48.764;9.174;2023-02-03T22:05:47;7.70;99.90
1205;DHT22;592;48.764;9.174;2023-02-03T22:08:16;7.70;99.90
1205;DHT22;592;48.764;9.174;2023-02-03T22:10:44;7.70;99.90
1205;DHT22;592;48.764;9.174;2023-02-03T22:13:10;7.70;99.90
1205;DHT22;592;48.764;9.174;2023-02-03T22:15:39;7.70;99.90
1205;DHT22;592;48.764;9.174;2023-02-03T22:18:06;7.60;99.90
1205;DHT22;592;48.764;9.174;2023-02-03T22:20:32;7.60;99.90
1205;DHT22;592;48.764;9.174;2023-02-03T22:22:59;7.70;99.90
1205;DHT22;592;48.764;9.174;2023-02-03T22:25:28;7.70;99.90
1205;DHT22;592;48.764;9.174;2023-02-03T22:27:55;7.70;99.90
1205;DHT22;592;48.764;9.174;2023-02-03T22:30:21;7.70;99.90
1205;DHT22;592;48.764;9.174;2023-02-03T22:32:49;7.70;99.90
1205;DHT22;592;48.764;9.174;2023-02-03T22:35:16;7.70;99.90
1205;DHT22;592;48.764;9.174;2023-02-03T22:37:43;7.60;99.90
1205;DHT22;592;48.764;9.174;2023-02-03T22:40:10;7.60;99.90
1205;DHT22;592;48.764;9.174;2023-02-03T22:42:38;7.60;99.90
1205;DHT22;592;48.764;9.174;2023-02-03T22:45:05;7.60;99.90
1205;DHT22;592;48.764;9.174;2023-02-03T22:47:32;7.60;99.90
1205;DHT22;592;48.764;9.174;2023-02-03T22:50:00;7.50;99.90
1205;DHT22;592;48.764;9.174;2023-02-03T22:52:27;7.60;99.90
1205;DHT22;592;48.764;9.174;2023-02-03T22:54:54;7.60;99.90
1205;DHT22;592;48.764;9.174;2023-02-03T22:57:21;7.70;99.90
1205;DHT22;592;48.764;9.174;2023-02-03T22:59:47;7.70;99.90
1205;DHT22;592;48.764;9.174;2023-02-03T23:02:14;7.70;99.90
1205;DHT22;592;48.764;9.174;2023-02-03T23:04:41;7.70;99.90
1205;DHT22;592;48.764;9.174;2023-02-03T23:07:09;7.80;99.90
1205;DHT22;592;48.764;9.174;2023-02-03T23:09:36;7.70;99.90
1205;DHT22;592;48.764;9.174;2023-02-03T23:12:04;7.70;99.90
1205;DHT22;592;48.764;9.174;2023-02-03T23:14:31;7.70;99.90
1205;DHT22;592;48.764;9.174;2023-02-03T23:16:57;7.70;99.90
1205;DHT22;592;48.764;9.174;2023-02-03T23:19:24;7.70;99.90
1205;DHT22;592;48.764;9.174;2023-02-03T23:21:51;7.70;99.90
1205;DHT22;592;48.764;9.174;2023-02-03T23:24:19;7.70;99.90
1205;DHT22;592;48.764;9.174;2023-02-03T23:26:45;7.70;99.90
1205;DHT22;592;48.764;9.174;2023-02-03T23:29:12;7.70;99.90
1205;DHT22;592;48.764;9.174;2023-02-03T23:31:39;7.70;99.90
1205;DHT22;592;48.764;9.174;2023-02-03T23:34:05;7.70;99.90
1205;DHT22;592;48.764;9.174;2023-02-03T23:36:50;7.70;99.90
1205;DHT22;592;48.764;9.174;2023-02-03T23:39:16;7.70;99.90
1205;DHT22;592;48.764;9.174;2023-02-03T23:41:44;7.70;99.90
1205;DHT22;592;48.764;9.174;2023-02-03T23:44:11;7.60;99.90
1205;DHT22;592;48.764;9.174;2023-02-03T23:46:38;7.70;99.90
1205;DHT22;592;48.764;9.174;2023-02-03T23:49:04;7.70;99.90
1205;DHT22;592;48.764;9.174;2023-02-03T23:51:31;7.60;99.90
1205;DHT22;592;48.764;9.174;2023-02-03T23:53:58;7.60;99.90
1205;DHT22;592;48.764;9.174;2023-02-03T23:56:25;7.60;99.90
1205;DHT22;592;48.764;9.174;2023-02-03T23:58:53;7.60;99.90
